sensor_id;sensor_type;location;lat;lon;timestamp;pressure;altitude;pressure_sealevel;temperature;humidity
20156;BME280;10238;49.556;10.956;2022-10-31T00:00:57;98840.66;;;9.45;100.00
20156;BME280;10238;49.556;10.956;2022-10-31T00:03:44;98839.94;;;9.43;100.00
20156;BME280;10238;49.556;10.956;2022-10-31T00:06:32;98837.41;;;9.42;100.00
20156;BME280;10238;49.556;10.956;2022-10-31T00:09:20;98845.50;;;9.40;100.00
20156;BME280;10238;49.556;10.956;2022-10-31T00:12:07;98834.91;;;9.40;100.00
20156;BME280;10238;49.556;10.956;2022-10-31T00:14:55;98837.69;;;9.39;100.00
20156;BME280;10238;49.556;10.956;2022-10-31T00:17:44;98836.88;;;9.38;100.00
20156;BME280;10238;49.556;10.956;2022-10-31T00:20:35;98838.81;;;9.36;100.00
20156;BME280;10238;49.556;10.956;2022-10-31T00:23:22;98839.78;;;9.35;100.00
20156;BME280;10238;49.556;10.956;2022-10-31T00:26:10;98832.81;;;9.34;100.00
20156;BME280;10238;49.556;10.956;2022-10-31T00:28:59;98841.72;;;9.33;100.00
20156;BME280;10238;49.556;10.956;2022-10-31T00:31:46;98845.50;;;9.31;100.00
20156;BME280;10238;49.556;10.956;2022-10-31T00:34:35;98843.81;;;9.30;100.00
20156;BME280;10238;49.556;10.956;2022-10-31T00:37:22;98845.50;;;9.31;100.00
20156;BME280;10238;49.556;10.956;2022-10-31T00:40:11;98841.31;;;9.28;100.00
20156;BME280;10238;49.556;10.956;2022-10-31T00:42:59;98839.59;;;9.27;100.00
20156;BME280;10238;49.556;10.956;2022-10-31T00:45:47;98836.00;;;9.28;100.00
20156;BME280;10238;49.556;10.956;2022-10-31T00:48:36;98840.59;;;9.26;100.00
20156;BME280;10238;49.556;10.956;2022-10-31T00:51:25;98840.72;;;9.25;100.00
20156;BME280;10238;49.556;10.956;2022-10-31T00:54:15;98841.84;;;9.22;100.00
20156;BME280;10238;49.556;10.956;2022-10-31T00:57:02;98838.19;;;9.23;100.00
20156;BME280;10238;49.556;10.956;2022-10-31T00:59:50;98835.69;;;9.22;100.00
20156;BME280;10238;49.556;10.956;2022-10-31T01:02:38;98839.31;;;9.21;100.00
20156;BME280;10238;49.556;10.956;2022-10-31T01:05:27;98843.78;;;9.20;100.00
20156;BME280;10238;49.556;10.956;2022-10-31T01:08:16;98843.78;;;9.20;100.00
20156;BME280;10238;49.556;10.956;2022-10-31T01:11:10;98844.22;;;9.25;100.00
20156;BME280;10238;49.556;10.956;2022-10-31T01:13:58;98839.88;;;9.24;100.00
20156;BME280;10238;49.556;10.956;2022-10-31T01:16:46;98831.38;;;9.21;100.00
20156;BME280;10238;49.556;10.956;2022-10-31T01:19:33;98843.78;;;9.20;100.00
20156;BME280;10238;49.556;10.956;2022-10-31T01:22:22;98835.13;;;9.18;100.00
20156;BME280;10238;49.556;10.956;2022-10-31T01:25:11;98843.09;;;9.18;100.00
20156;BME280;10238;49.556;10.956;2022-10-31T01:27:59;98844.03;;;9.17;100.00
20156;BME280;10238;49.556;10.956;2022-10-31T01:30:47;98846.56;;;9.19;100.00
20156;BME280;10238;49.556;10.956;2022-10-31T01:33:36;98842.97;;;9.20;100.00
20156;BME280;10238;49.556;10.956;2022-10-31T01:36:26;98850.75;;;9.21;100.00
20156;BME280;10238;49.556;10.956;2022-10-31T01:39:15;98848.09;;;9.21;100.00
20156;BME280;10238;49.556;10.956;2022-10-31T01:42:04;98847.28;;;9.21;100.00
20156;BME280;10238;49.556;10.956;2022-10-31T01:44:59;98837.47;;;9.21;100.00
20156;BME280;10238;49.556;10.956;2022-10-31T01:47:48;98838.47;;;9.20;100.00
20156;BME280;10238;49.556;10.956;2022-10-31T01:50:38;98846.28;;;9.22;100.00
20156;BME280;10238;49.556;10.956;2022-10-31T01:53:28;98836.53;;;9.22;100.00
20156;BME280;10238;49.556;10.956;2022-10-31T01:56:17;98829.53;;;9.21;100.00
20156;BME280;10238;49.556;10.956;2022-10-31T01:59:11;98834.00;;;9.21;100.00
20156;BME280;10238;49.556;10.956;2022-10-31T02:02:01;98833.16;;;9.20;100.00
20156;BME280;10238;49.556;10.956;2022-10-31T02:04:49;98832.34;;;9.20;100.00
20156;BME280;10238;49.556;10.956;2022-10-31T02:07:44;98839.59;;;9.18;100.00
20156;BME280;10238;49.556;10.956;2022-10-31T02:10:36;98828.84;;;9.19;100.00
20156;BME280;10238;49.556;10.956;2022-10-31T02:13:25;98834.41;;;9.16;100.00
20156;BME280;10238;49.556;10.956;2022-10-31T02:16:16;98835.41;;;9.15;100.00
20156;BME280;10238;49.556;10.956;2022-10-31T02:19:16;98836.34;;;9.14;100.00
20156;BME280;10238;49.556;10.956;2022-10-31T02:22:16;98833.00;;;9.12;100.00
20156;BME280;10238;49.556;10.956;2022-10-31T02:25:41;98829.66;;;9.10;100.00
20156;BME280;10238;49.556;10.956;2022-10-31T02:29:05;98829.66;;;9.10;100.00
20156;BME280;10238;49.556;10.956;2022-10-31T02:32:12;98826.28;;;9.08;100.00
20156;BME280;10238;49.556;10.956;2022-10-31T02:35:11;98821.94;;;9.07;100.00
20156;BME280;10238;49.556;10.956;2022-10-31T02:38:17;98819.44;;;9.06;100.00
20156;BME280;10238;49.556;10.956;2022-10-31T02:41:22;98823.88;;;9.05;100.00
20156;BME280;10238;49.556;10.956;2022-10-31T02:44:21;98820.41;;;9.05;100.00
20156;BME280;10238;49.556;10.956;2022-10-31T02:47:16;98820.56;;;9.03;100.00
20156;BME280;10238;49.556;10.956;2022-10-31T02:50:10;98817.06;;;9.03;100.00
20156;BME280;10238;49.556;10.956;2022-10-31T02:53:00;98817.19;;;9.01;100.00
20156;BME280;10238;49.556;10.956;2022-10-31T02:56:01;98815.50;;;9.00;100.00
20156;BME280;10238;49.556;10.956;2022-10-31T02:58:54;98806.56;;;9.01;100.00
20156;BME280;10238;49.556;10.956;2022-10-31T03:02:16;98816.50;;;8.99;100.00
20156;BME280;10238;49.556;10.956;2022-10-31T03:05:37;98815.50;;;9.00;100.00
20156;BME280;10238;49.556;10.956;2022-10-31T03:08:39;98813.84;;;8.99;100.00
20156;BME280;10238;49.556;10.956;2022-10-31T03:11:39;98826.38;;;8.97;100.00
20156;BME280;10238;49.556;10.956;2022-10-31T03:14:39;98817.19;;;9.01;100.00
20156;BME280;10238;49.556;10.956;2022-10-31T03:17:40;98824.84;;;8.95;100.00
20156;BME280;10238;49.556;10.956;2022-10-31T03:20:36;98827.16;;;8.88;100.00
20156;BME280;10238;49.556;10.956;2022-10-31T03:23:26;98825.50;;;8.87;100.00
20156;BME280;10238;49.556;10.956;2022-10-31T03:26:17;98830.81;;;8.87;100.00
20156;BME280;10238;49.556;10.956;2022-10-31T03:29:11;98832.47;;;8.88;100.00
20156;BME280;10238;49.556;10.956;2022-10-31T03:32:05;98828.72;;;8.91;100.00
20156;BME280;10238;49.556;10.956;2022-10-31T03:34:59;98824.25;;;8.91;100.00
20156;BME280;10238;49.556;10.956;2022-10-31T03:37:51;98837.50;;;8.91;100.00
20156;BME280;10238;49.556;10.956;2022-10-31T03:40:43;98831.22;;;8.92;100.00
20156;BME280;10238;49.556;10.956;2022-10-31T03:43:41;98829.56;;;8.91;100.00
20156;BME280;10238;49.556;10.956;2022-10-31T03:46:31;98830.53;;;8.90;100.00
20156;BME280;10238;49.556;10.956;2022-10-31T03:49:19;98837.91;;;8.87;100.00
20156;BME280;10238;49.556;10.956;2022-10-31T03:52:18;98841.41;;;8.87;100.00
20156;BME280;10238;49.556;10.956;2022-10-31T03:55:17;98842.53;;;8.85;100.00
20156;BME280;10238;49.556;10.956;2022-10-31T03:58:11;98844.31;;;8.84;100.00
20156;BME280;10238;49.556;10.956;2022-10-31T04:01:02;98833.00;;;8.82;100.00
20156;BME280;10238;49.556;10.956;2022-10-31T04:03:53;98836.63;;;8.81;100.00
20156;BME280;10238;49.556;10.956;2022-10-31T04:06:44;98838.56;;;8.79;100.00
20156;BME280;10238;49.556;10.956;2022-10-31T04:09:37;98840.41;;;8.78;100.00
20156;BME280;10238;49.556;10.956;2022-10-31T04:12:28;98839.53;;;8.78;100.00
20156;BME280;10238;49.556;10.956;2022-10-31T04:15:19;98835.22;;;8.77;100.00
20156;BME280;10238;49.556;10.956;2022-10-31T04:18:08;98833.53;;;8.76;100.00
20156;BME280;10238;49.556;10.956;2022-10-31T04:21:01;98832.72;;;8.75;100.00
20156;BME280;10238;49.556;10.956;2022-10-31T04:23:51;98830.19;;;8.74;100.00
20156;BME280;10238;49.556;10.956;2022-10-31T04:26:40;98827.53;;;8.74;100.00
20156;BME280;10238;49.556;10.956;2022-10-31T04:29:27;98825.56;;;8.76;100.00
20156;BME280;10238;49.556;10.956;2022-10-31T04:32:15;98833.78;;;8.73;100.00
20156;BME280;10238;49.556;10.956;2022-10-31T04:35:05;98831.81;;;8.65;100.00
20156;BME280;10238;49.556;10.956;2022-10-31T04:37:53;98828.72;;;8.60;100.00
20156;BME280;10238;49.556;10.956;2022-10-31T04:40:40;98830.78;;;8.57;100.00
20156;BME280;10238;49.556;10.956;2022-10-31T04:43:31;98830.91;;;8.55;100.00
20156;BME280;10238;49.556;10.956;2022-10-31T04:46:18;98823.81;;;8.56;100.00
20156;BME280;10238;49.556;10.956;2022-10-31T04:49:06;98823.81;;;8.56;100.00
20156;BME280;10238;49.556;10.956;2022-10-31T04:51:54;98821.16;;;8.56;100.00
20156;BME280;10238;49.556;10.956;2022-10-31T04:54:41;98822.00;;;8.56;100.00
20156;BME280;10238;49.556;10.956;2022-10-31T04:57:28;98817.53;;;8.57;100.00
20156;BME280;10238;49.556;10.956;2022-10-31T05:00:20;98831.50;;;8.59;100.00
20156;BME280;10238;49.556;10.956;2022-10-31T05:03:08;98818.25;;;8.59;100.00
20156;BME280;10238;49.556;10.956;2022-10-31T05:05:56;98823.41;;;8.60;100.00
20156;BME280;10238;49.556;10.956;2022-10-31T05:08:43;98821.75;;;8.59;100.00
20156;BME280;10238;49.556;10.956;2022-10-31T05:11:31;98820.63;;;8.62;100.00
20156;BME280;10238;49.556;10.956;2022-10-31T05:14:23;98822.44;;;8.61;100.00
20156;BME280;10238;49.556;10.956;2022-10-31T05:17:15;98818.97;;;8.61;100.00
20156;BME280;10238;49.556;10.956;2022-10-31T05:20:05;98821.47;;;8.62;100.00
20156;BME280;10238;49.556;10.956;2022-10-31T05:22:55;98819.66;;;8.63;100.00
20156;BME280;10238;49.556;10.956;2022-10-31T05:25:43;98816.19;;;8.62;100.00
20156;BME280;10238;49.556;10.956;2022-10-31T05:28:31;98813.66;;;8.61;100.00
20156;BME280;10238;49.556;10.956;2022-10-31T05:31:18;98818.97;;;8.61;100.00
20156;BME280;10238;49.556;10.956;2022-10-31T05:34:07;98818.09;;;8.60;100.00
20156;BME280;10238;49.556;10.956;2022-10-31T05:36:55;98818.25;;;8.59;100.00
20156;BME280;10238;49.556;10.956;2022-10-31T05:39:43;98817.53;;;8.57;100.00
20156;BME280;10238;49.556;10.956;2022-10-31T05:42:31;98816.56;;;8.58;100.00
20156;BME280;10238;49.556;10.956;2022-10-31T05:45:21;98829.81;;;8.58;100.00
20156;BME280;10238;49.556;10.956;2022-10-31T05:48:12;98828.13;;;8.57;100.00
20156;BME280;10238;49.556;10.956;2022-10-31T05:51:02;98823.53;;;8.59;100.00
20156;BME280;10238;49.556;10.956;2022-10-31T05:53:51;98824.78;;;8.55;100.00
20156;BME280;10238;49.556;10.956;2022-10-31T05:56:40;98833.69;;;8.54;100.00
20156;BME280;10238;49.556;10.956;2022-10-31T05:59:28;98832.59;;;8.56;100.00
20156;BME280;10238;49.556;10.956;2022-10-31T06:02:16;98820.31;;;8.55;100.00
20156;BME280;10238;49.556;10.956;2022-10-31T06:05:04;98823.66;;;8.57;100.00
20156;BME280;10238;49.556;10.956;2022-10-31T06:07:55;98813.91;;;8.58;100.00
20156;BME280;10238;49.556;10.956;2022-10-31T06:10:49;98816.44;;;8.59;100.00
20156;BME280;10238;49.556;10.956;2022-10-31T06:13:43;98814.59;;;8.60;100.00
20156;BME280;10238;49.556;10.956;2022-10-31T06:16:47;98815.59;;;8.59;100.00
20156;BME280;10238;49.556;10.956;2022-10-31T06:19:47;98830.50;;;8.60;100.00
20156;BME280;10238;49.556;10.956;2022-10-31T06:22:36;98824.25;;;8.61;100.00
20156;BME280;10238;49.556;10.956;2022-10-31T06:25:28;98821.47;;;8.62;100.00
20156;BME280;10238;49.556;10.956;2022-10-31T06:28:15;98824.00;;;8.64;100.00
20156;BME280;10238;49.556;10.956;2022-10-31T06:31:03;98819.50;;;8.64;100.00
20156;BME280;10238;49.556;10.956;2022-10-31T06:33:56;98821.34;;;8.64;100.00
20156;BME280;10238;49.556;10.956;2022-10-31T06:36:45;98819.50;;;8.64;100.00
20156;BME280;10238;49.556;10.956;2022-10-31T06:39:33;98827.34;;;8.66;100.00
20156;BME280;10238;49.556;10.956;2022-10-31T06:42:22;98830.00;;;8.66;100.00
20156;BME280;10238;49.556;10.956;2022-10-31T06:45:10;98824.56;;;8.67;100.00
20156;BME280;10238;49.556;10.956;2022-10-31T06:47:57;98837.69;;;8.69;100.00
20156;BME280;10238;49.556;10.956;2022-10-31T06:51:04;98830.44;;;8.71;100.00
20156;BME280;10238;49.556;10.956;2022-10-31T06:53:51;98832.84;;;8.74;100.00
20156;BME280;10238;49.556;10.956;2022-10-31T06:56:39;98835.22;;;8.77;100.00
20156;BME280;10238;49.556;10.956;2022-10-31T06:59:30;98834.84;;;8.82;100.00
20156;BME280;10238;49.556;10.956;2022-10-31T07:02:18;98840.69;;;8.85;100.00
20156;BME280;10238;49.556;10.956;2022-10-31T07:05:07;98841.41;;;8.87;100.00
20156;BME280;10238;49.556;10.956;2022-10-31T07:07:56;98841.97;;;8.91;100.00
20156;BME280;10238;49.556;10.956;2022-10-31T07:10:52;98836.28;;;8.95;100.00
20156;BME280;10238;49.556;10.956;2022-10-31T07:13:40;98841.75;;;9.03;100.00
20156;BME280;10238;49.556;10.956;2022-10-31T07:16:29;98848.47;;;9.07;100.00
20156;BME280;10238;49.556;10.956;2022-10-31T07:19:17;98845.28;;;9.13;100.00
20156;BME280;10238;49.556;10.956;2022-10-31T07:22:05;98846.44;;;9.20;100.00
20156;BME280;10238;49.556;10.956;2022-10-31T07:24:52;98843.50;;;9.23;100.00
20156;BME280;10238;49.556;10.956;2022-10-31T07:27:42;98847.56;;;9.27;100.00
20156;BME280;10238;49.556;10.956;2022-10-31T07:30:30;98846.06;;;9.34;100.00
20156;BME280;10238;49.556;10.956;2022-10-31T07:33:19;98843.56;;;9.42;100.00
20156;BME280;10238;49.556;10.956;2022-10-31T07:36:08;98847.34;;;9.49;100.00
20156;BME280;10238;49.556;10.956;2022-10-31T07:38:56;98851.72;;;9.60;100.00
20156;BME280;10238;49.556;10.956;2022-10-31T07:41:47;98851.56;;;9.61;100.00
20156;BME280;10238;49.556;10.956;2022-10-31T07:44:34;98845.59;;;9.69;100.00
20156;BME280;10238;49.556;10.956;2022-10-31T07:47:22;98852.03;;;9.76;100.00
20156;BME280;10238;49.556;10.956;2022-10-31T07:50:14;98848.69;;;9.83;100.00
20156;BME280;10238;49.556;10.956;2022-10-31T07:53:05;98847.16;;;9.90;100.00
20156;BME280;10238;49.556;10.956;2022-10-31T07:55:53;98857.78;;;10.00;100.00
20156;BME280;10238;49.556;10.956;2022-10-31T07:58:41;98845.38;;;10.10;100.00
20156;BME280;10238;49.556;10.956;2022-10-31T08:01:29;98848.31;;;10.16;100.00
20156;BME280;10238;49.556;10.956;2022-10-31T08:04:16;98845.09;;;10.22;100.00
20156;BME280;10238;49.556;10.956;2022-10-31T08:07:05;98851.22;;;10.32;100.00
20156;BME280;10238;49.556;10.956;2022-10-31T08:09:54;98845.34;;;10.38;100.00
20156;BME280;10238;49.556;10.956;2022-10-31T08:12:41;98844.78;;;10.44;100.00
20156;BME280;10238;49.556;10.956;2022-10-31T08:15:30;98838.63;;;10.53;100.00
20156;BME280;10238;49.556;10.956;2022-10-31T08:18:17;98833.28;;;10.63;100.00
20156;BME280;10238;49.556;10.956;2022-10-31T08:21:05;98832.41;;;10.72;100.00
20156;BME280;10238;49.556;10.956;2022-10-31T08:23:54;98830.72;;;10.80;100.00
20156;BME280;10238;49.556;10.956;2022-10-31T08:26:42;98823.72;;;10.89;100.00
20156;BME280;10238;49.556;10.956;2022-10-31T08:29:30;98830.28;;;10.94;100.00
20156;BME280;10238;49.556;10.956;2022-10-31T08:32:19;98828.69;;;11.02;100.00
20156;BME280;10238;49.556;10.956;2022-10-31T08:35:08;98832.28;;;11.10;100.00
20156;BME280;10238;49.556;10.956;2022-10-31T08:37:57;98831.28;;;11.21;100.00
20156;BME280;10238;49.556;10.956;2022-10-31T08:40:48;98833.38;;;11.17;100.00
20156;BME280;10238;49.556;10.956;2022-10-31T08:43:36;98830.53;;;11.28;100.00
20156;BME280;10238;49.556;10.956;2022-10-31T08:46:24;98828.53;;;11.40;100.00
20156;BME280;10238;49.556;10.956;2022-10-31T08:49:12;98822.31;;;11.49;100.00
20156;BME280;10238;49.556;10.956;2022-10-31T08:52:00;98816.09;;;11.58;100.00
20156;BME280;10238;49.556;10.956;2022-10-31T08:54:49;98810.72;;;11.67;100.00
20156;BME280;10238;49.556;10.956;2022-10-31T08:57:38;98809.69;;;11.78;100.00
20156;BME280;10238;49.556;10.956;2022-10-31T09:00:29;98808.47;;;11.90;100.00
20156;BME280;10238;49.556;10.956;2022-10-31T09:03:23;98815.56;;;11.99;100.00
20156;BME280;10238;49.556;10.956;2022-10-31T09:06:11;98811.81;;;12.09;100.00
20156;BME280;10238;49.556;10.956;2022-10-31T09:08:59;98801.06;;;12.19;100.00
20156;BME280;10238;49.556;10.956;2022-10-31T09:11:47;98806.16;;;12.30;100.00
20156;BME280;10238;49.556;10.956;2022-10-31T09:14:39;98796.78;;;12.43;100.00
20156;BME280;10238;49.556;10.956;2022-10-31T09:17:27;98807.97;;;12.47;100.00
20156;BME280;10238;49.556;10.956;2022-10-31T09:20:15;98798.69;;;12.59;100.00
20156;BME280;10238;49.556;10.956;2022-10-31T09:23:06;98792.13;;;12.71;100.00
20156;BME280;10238;49.556;10.956;2022-10-31T09:25:55;98795.56;;;12.89;100.00
20156;BME280;10238;49.556;10.956;2022-10-31T09:28:43;98794.09;;;12.94;100.00
20156;BME280;10238;49.556;10.956;2022-10-31T09:31:34;98791.19;;;13.06;100.00
20156;BME280;10238;49.556;10.956;2022-10-31T09:34:27;98796.78;;;13.20;100.00
20156;BME280;10238;49.556;10.956;2022-10-31T09:37:15;98788.47;;;13.31;100.00
20156;BME280;10238;49.556;10.956;2022-10-31T09:40:04;98784.50;;;13.43;100.00
20156;BME280;10238;49.556;10.956;2022-10-31T09:43:09;98788.22;;;13.58;100.00
20156;BME280;10238;49.556;10.956;2022-10-31T09:46:07;98781.56;;;13.70;100.00
20156;BME280;10238;49.556;10.956;2022-10-31T09:49:29;98781.59;;;13.86;100.00
20156;BME280;10238;49.556;10.956;2022-10-31T09:52:24;98786.47;;;13.99;100.00
20156;BME280;10238;49.556;10.956;2022-10-31T09:55:18;98776.59;;;14.07;100.00
20156;BME280;10238;49.556;10.956;2022-10-31T09:58:14;98772.59;;;14.19;100.00
20156;BME280;10238;49.556;10.956;2022-10-31T10:01:04;98770.13;;;14.34;100.00
20156;BME280;10238;49.556;10.956;2022-10-31T10:03:59;98768.09;;;14.52;100.00
20156;BME280;10238;49.556;10.956;2022-10-31T10:06:52;98767.56;;;14.64;100.00
20156;BME280;10238;49.556;10.956;2022-10-31T10:09:40;98765.88;;;14.79;100.00
20156;BME280;10238;49.556;10.956;2022-10-31T10:13:05;98765.84;;;14.95;100.00
20156;BME280;10238;49.556;10.956;2022-10-31T10:16:25;98756.06;;;15.10;100.00
20156;BME280;10238;49.556;10.956;2022-10-31T10:19:50;98745.94;;;15.29;100.00
20156;BME280;10238;49.556;10.956;2022-10-31T10:22:52;98749.25;;;15.47;100.00
20156;BME280;10238;49.556;10.956;2022-10-31T10:25:44;98734.72;;;15.64;100.00
20156;BME280;10238;49.556;10.956;2022-10-31T10:28:40;98731.28;;;15.78;100.00
20156;BME280;10238;49.556;10.956;2022-10-31T10:31:41;98724.13;;;15.93;100.00
20156;BME280;10238;49.556;10.956;2022-10-31T10:34:35;98730.38;;;16.08;100.00
20156;BME280;10238;49.556;10.956;2022-10-31T10:37:30;98727.94;;;16.21;100.00
20156;BME280;10238;49.556;10.956;2022-10-31T10:40:24;98728.63;;;16.37;100.00
20156;BME280;10238;49.556;10.956;2022-10-31T10:43:24;98722.09;;;16.54;100.00
20156;BME280;10238;49.556;10.956;2022-10-31T10:46:22;98714.34;;;16.74;100.00
20156;BME280;10238;49.556;10.956;2022-10-31T10:49:40;98715.47;;;16.94;100.00
20156;BME280;10238;49.556;10.956;2022-10-31T10:52:41;98714.88;;;17.13;100.00
20156;BME280;10238;49.556;10.956;2022-10-31T10:55:46;98706.50;;;17.37;100.00
20156;BME280;10238;49.556;10.956;2022-10-31T10:58:38;98702.22;;;17.57;100.00
20156;BME280;10238;49.556;10.956;2022-10-31T11:01:28;98694.16;;;17.78;100.00
20156;BME280;10238;49.556;10.956;2022-10-31T11:04:28;98687.06;;;17.92;100.00
20156;BME280;10238;49.556;10.956;2022-10-31T11:07:16;98686.34;;;18.04;100.00
20156;BME280;10238;49.556;10.956;2022-10-31T11:10:06;98674.41;;;18.13;100.00
20156;BME280;10238;49.556;10.956;2022-10-31T11:13:20;98670.28;;;18.38;100.00
20156;BME280;10238;49.556;10.956;2022-10-31T11:16:13;98661.28;;;18.52;100.00
20156;BME280;10238;49.556;10.956;2022-10-31T11:19:17;98658.69;;;18.65;100.00
20156;BME280;10238;49.556;10.956;2022-10-31T11:22:16;98645.69;;;18.75;100.00
20156;BME280;10238;49.556;10.956;2022-10-31T11:25:21;98635.16;;;18.87;100.00
20156;BME280;10238;49.556;10.956;2022-10-31T11:28:10;98624.25;;;19.01;100.00
20156;BME280;10238;49.556;10.956;2022-10-31T11:31:04;98612.88;;;19.12;100.00
20156;BME280;10238;49.556;10.956;2022-10-31T11:33:59;98602.97;;;19.19;100.00
20156;BME280;10238;49.556;10.956;2022-10-31T11:36:48;98610.88;;;19.27;100.00
20156;BME280;10238;49.556;10.956;2022-10-31T11:39:42;98618.16;;;19.34;100.00
20156;BME280;10238;49.556;10.956;2022-10-31T11:42:37;98611.53;;;19.36;100.00
20156;BME280;10238;49.556;10.956;2022-10-31T11:45:32;98610.50;;;19.44;100.00
20156;BME280;10238;49.556;10.956;2022-10-31T11:48:24;98599.94;;;19.49;100.00
20156;BME280;10238;49.556;10.956;2022-10-31T11:51:20;98591.84;;;19.55;100.00
20156;BME280;10238;49.556;10.956;2022-10-31T11:54:21;98587.13;;;19.64;100.00
20156;BME280;10238;49.556;10.956;2022-10-31T11:57:24;98585.47;;;19.69;100.00
20156;BME280;10238;49.556;10.956;2022-10-31T12:00:21;98579.63;;;19.79;100.00
20156;BME280;10238;49.556;10.956;2022-10-31T12:03:37;98577.97;;;19.84;100.00
20156;BME280;10238;49.556;10.956;2022-10-31T12:06:32;98571.53;;;19.92;100.00
20156;BME280;10238;49.556;10.956;2022-10-31T12:09:23;98570.72;;;19.98;100.00
20156;BME280;10238;49.556;10.956;2022-10-31T12:12:53;98572.56;;;20.04;100.00
20156;BME280;10238;49.556;10.956;2022-10-31T12:15:52;98563.63;;;20.10;100.00
20156;BME280;10238;49.556;10.956;2022-10-31T12:18:57;98567.19;;;20.17;100.00
20156;BME280;10238;49.556;10.956;2022-10-31T12:22:03;98558.88;;;20.25;100.00
20156;BME280;10238;49.556;10.956;2022-10-31T12:25:28;98557.00;;;20.32;100.00
20156;BME280;10238;49.556;10.956;2022-10-31T12:28:50;98556.34;;;20.36;100.00
20156;BME280;10238;49.556;10.956;2022-10-31T12:31:51;98549.28;;;20.42;100.00
20156;BME280;10238;49.556;10.956;2022-10-31T12:35:14;98535.13;;;20.46;100.00
20156;BME280;10238;49.556;10.956;2022-10-31T12:41:49;98523.91;;;20.49;100.00
20156;BME280;10238;49.556;10.956;2022-10-31T12:45:13;98520.34;;;20.55;100.00
20156;BME280;10238;49.556;10.956;2022-10-31T12:48:23;98519.72;;;20.60;100.00
20156;BME280;10238;49.556;10.956;2022-10-31T12:51:26;98516.38;;;20.64;100.00
20156;BME280;10238;49.556;10.956;2022-10-31T12:54:56;98515.53;;;20.64;100.00
20156;BME280;10238;49.556;10.956;2022-10-31T12:57:52;98507.66;;;20.62;100.00
20156;BME280;10238;49.556;10.956;2022-10-31T13:00:45;98507.84;;;20.61;100.00
20156;BME280;10238;49.556;10.956;2022-10-31T13:03:44;98503.50;;;20.60;100.00
20156;BME280;10238;49.556;10.956;2022-10-31T13:06:42;98501.81;;;20.59;100.00
20156;BME280;10238;49.556;10.956;2022-10-31T13:09:46;98501.44;;;20.55;100.00
20156;BME280;10238;49.556;10.956;2022-10-31T13:12:37;98497.72;;;20.50;100.00
20156;BME280;10238;49.556;10.956;2022-10-31T13:15:32;98485.25;;;20.49;100.00
20156;BME280;10238;49.556;10.956;2022-10-31T13:18:31;98482.38;;;20.44;100.00
20156;BME280;10238;49.556;10.956;2022-10-31T13:21:25;98485.28;;;20.42;100.00
20156;BME280;10238;49.556;10.956;2022-10-31T13:24:22;98484.88;;;20.39;100.00
20156;BME280;10238;49.556;10.956;2022-10-31T13:27:23;98476.16;;;20.37;100.00
20156;BME280;10238;49.556;10.956;2022-10-31T13:30:17;98474.94;;;20.33;100.00
20156;BME280;10238;49.556;10.956;2022-10-31T13:33:16;98477.03;;;20.31;100.00
20156;BME280;10238;49.556;10.956;2022-10-31T13:36:21;98477.47;;;20.28;100.00
20156;BME280;10238;49.556;10.956;2022-10-31T13:39:28;98464.38;;;20.25;100.00
20156;BME280;10238;49.556;10.956;2022-10-31T13:42:25;98465.81;;;20.21;100.00
20156;BME280;10238;49.556;10.956;2022-10-31T13:45:22;98470.84;;;20.17;100.00
20156;BME280;10238;49.556;10.956;2022-10-31T13:48:33;98458.81;;;20.13;100.00
20156;BME280;10238;49.556;10.956;2022-10-31T13:51:29;98461.06;;;20.10;100.00
20156;BME280;10238;49.556;10.956;2022-10-31T13:54:31;98458.78;;;20.07;100.00
20156;BME280;10238;49.556;10.956;2022-10-31T13:57:31;98459.22;;;20.04;100.00
20156;BME280;10238;49.556;10.956;2022-10-31T14:00:26;98454.66;;;19.98;100.00
20156;BME280;10238;49.556;10.956;2022-10-31T14:03:22;98456.75;;;19.96;100.00
20156;BME280;10238;49.556;10.956;2022-10-31T14:06:47;98439.31;;;19.92;100.00
20156;BME280;10238;49.556;10.956;2022-10-31T14:09:52;98443.47;;;19.88;100.00
20156;BME280;10238;49.556;10.956;2022-10-31T14:12:44;98440.56;;;19.83;100.00
20156;BME280;10238;49.556;10.956;2022-10-31T14:15:37;98436.44;;;19.80;100.00
20156;BME280;10238;49.556;10.956;2022-10-31T14:18:34;98436.47;;;19.74;100.00
20156;BME280;10238;49.556;10.956;2022-10-31T14:21:29;98435.22;;;19.70;100.00
20156;BME280;10238;49.556;10.956;2022-10-31T14:24:34;98433.13;;;19.65;100.00
20156;BME280;10238;49.556;10.956;2022-10-31T14:27:46;98440.00;;;19.61;100.00
20156;BME280;10238;49.556;10.956;2022-10-31T14:30:35;98438.97;;;19.56;100.00
20156;BME280;10238;49.556;10.956;2022-10-31T14:33:27;98439.59;;;19.51;100.00
20156;BME280;10238;49.556;10.956;2022-10-31T14:36:25;98443.13;;;19.45;100.00
20156;BME280;10238;49.556;10.956;2022-10-31T14:39:24;98429.03;;;19.37;100.00
20156;BME280;10238;49.556;10.956;2022-10-31T14:42:39;98426.56;;;19.29;100.00
20156;BME280;10238;49.556;10.956;2022-10-31T14:45:42;98416.16;;;19.19;100.00
20156;BME280;10238;49.556;10.956;2022-10-31T14:48:58;98410.75;;;19.12;100.00
20156;BME280;10238;49.556;10.956;2022-10-31T14:51:55;98410.97;;;19.04;100.00
20156;BME280;10238;49.556;10.956;2022-10-31T14:54:53;98413.03;;;18.96;100.00
20156;BME280;10238;49.556;10.956;2022-10-31T14:57:50;98411.38;;;18.88;100.00
20156;BME280;10238;49.556;10.956;2022-10-31T15:00:44;98400.78;;;18.80;100.00
20156;BME280;10238;49.556;10.956;2022-10-31T15:03:35;98405.34;;;18.73;100.00
20156;BME280;10238;49.556;10.956;2022-10-31T15:06:40;98398.06;;;18.67;100.00
20156;BME280;10238;49.556;10.956;2022-10-31T15:09:33;98401.16;;;18.58;100.00